Time;durP1;ratioP1;P1;durP2;ratioP2;P2;SDS_P1;SDS_P2;PMS_P1;PMS_P2;Temp;Humidity;BMP_temperature;BMP_pressure;BME280_temperature;BME280_humidity;BME280_pressure;Samples;Min_cycle;Max_cycle;Signal;HPM_P1;HPM_P2
2022/04/25 00:01:42;;;;;;;1.60;1.50;;;19.70;54.00;;;;;;5054416;28;20189;-70
2022/04/25 00:04:09;;;;;;;1.35;1.25;;;19.70;54.00;;;;;;5054035;28;20177;-70
2022/04/25 00:06:35;;;;;;;1.73;1.50;;;19.70;54.00;;;;;;5054364;28;20664;-70
2022/04/25 00:09:01;;;;;;;1.52;1.42;;;19.70;54.00;;;;;;5054149;28;20201;-70
2022/04/25 00:11:27;;;;;;;1.50;1.40;;;19.60;53.90;;;;;;5054137;28;20193;-71
2022/04/25 00:13:52;;;;;;;1.60;1.40;;;19.70;54.00;;;;;;5053875;28;20181;-70
2022/04/25 00:16:18;;;;;;;1.65;1.50;;;19.60;53.90;;;;;;5072073;28;20180;-70
2022/04/25 00:18:47;;;;;;;1.58;1.42;;;19.60;53.90;;;;;;5072592;28;20209;-70
2022/04/25 00:21:13;;;;;;;1.58;1.35;;;19.70;54.00;;;;;;5058004;28;20196;-70
2022/04/25 00:23:38;;;;;;;1.60;1.50;;;19.70;54.00;;;;;;5074639;28;20178;-70
2022/04/25 00:26:05;;;;;;;1.50;1.40;;;19.70;54.00;;;;;;5058105;28;20209;-70
2022/04/25 00:28:30;;;;;;;1.48;1.38;;;19.70;54.00;;;;;;5057826;28;20205;-70
2022/04/25 00:30:56;;;;;;;1.52;1.42;;;19.70;54.00;;;;;;5057905;28;20227;-70
2022/04/25 00:33:22;;;;;;;1.80;1.60;;;19.60;53.90;;;;;;5057687;28;20321;-70
2022/04/25 00:35:47;;;;;;;2.17;1.80;;;19.70;54.00;;;;;;5041083;28;20185;-70
2022/04/25 00:38:13;;;;;;;2.00;1.85;;;19.60;53.90;;;;;;5057658;28;20217;-70
2022/04/25 00:40:40;;;;;;;1.70;1.60;;;19.60;53.90;;;;;;5057579;28;20272;-70
2022/04/25 00:43:06;;;;;;;1.77;1.65;;;19.70;54.00;;;;;;5057452;28;20177;-70
2022/04/25 00:45:34;;;;;;;1.88;1.77;;;19.60;53.90;;;;;;5075550;28;20193;-70
2022/04/25 00:48:00;;;;;;;1.77;1.67;;;19.60;53.90;;;;;;5040876;28;20206;-70
2022/04/25 00:50:26;;;;;;;1.95;1.73;;;19.60;53.90;;;;;;5057504;28;20556;-70
2022/04/25 00:52:52;;;;;;;1.27;1.17;;;19.60;53.90;;;;;;5057546;28;20200;-70
2022/04/25 00:55:18;;;;;;;1.70;1.60;;;19.60;53.90;;;;;;5057618;28;20174;-70
2022/04/25 00:57:44;;;;;;;1.70;1.60;;;19.60;54.50;;;;;;5057200;28;20304;-70
2022/04/25 01:00:13;;;;;;;1.55;1.40;;;19.60;54.20;;;;;;5057418;28;20271;-70
2022/04/25 01:02:40;;;;;;;1.83;1.73;;;19.60;53.90;;;;;;5040497;28;20197;-71
2022/04/25 01:05:08;;;;;;;1.85;1.75;;;19.60;53.90;;;;;;5057408;28;20182;-70
2022/04/25 01:07:36;;;;;;;1.80;1.70;;;19.60;53.90;;;;;;5057280;28;20244;-70
2022/04/25 01:10:05;;;;;;;1.55;1.45;;;19.60;54.40;;;;;;5057292;28;20182;-70
2022/04/25 01:12:31;;;;;;;1.50;1.40;;;19.60;53.90;;;;;;5057362;28;20219;-70
2022/04/25 01:15:04;;;;;;;1.70;1.60;;;19.60;53.90;;;;;;5057037;28;20239;-70
2022/04/25 01:17:31;;;;;;;1.70;1.60;;;19.60;53.90;;;;;;5078313;28;20201;-70
2022/04/25 01:19:57;;;;;;;1.70;1.60;;;19.60;53.90;;;;;;5075295;28;20198;-70
2022/04/25 01:28:38;;;;;;;1.40;1.30;;;19.60;53.90;;;;;;5074525;28;20202;-70
2022/04/25 01:31:04;;;;;;;1.70;1.60;;;19.60;53.90;;;;;;5055321;28;20185;-70
2022/04/25 01:33:30;;;;;;;1.52;1.42;;;19.60;54.50;;;;;;5056492;28;20243;-70
2022/04/25 01:35:55;;;;;;;1.88;1.77;;;19.60;53.90;;;;;;5056422;28;20259;-70
2022/04/25 01:38:21;;;;;;;1.73;1.63;;;19.60;53.90;;;;;;5056478;28;20277;-70
2022/04/25 01:40:47;;;;;;;1.90;1.80;;;19.60;53.90;;;;;;5056484;28;20186;-70
2022/04/25 01:43:13;;;;;;;2.40;2.20;;;19.60;53.90;;;;;;5056467;28;20185;-71
2022/04/25 01:45:42;;;;;;;2.20;2.00;;;19.60;53.90;;;;;;5056866;28;20552;-70
2022/04/25 01:48:08;;;;;;;2.40;2.20;;;19.60;53.90;;;;;;5056354;28;20198;-70
2022/04/25 01:50:33;;;;;;;2.83;2.28;;;19.60;53.90;;;;;;5034491;28;20179;-70
2022/04/25 01:52:59;;;;;;;2.45;2.25;;;19.60;53.90;;;;;;5032985;28;20318;-70
2022/04/25 01:55:25;;;;;;;2.65;2.45;;;19.60;53.80;;;;;;5034180;28;20278;-70
2022/04/25 01:57:51;;;;;;;2.30;2.10;;;19.60;53.80;;;;;;5016526;28;20211;-70
2022/04/25 02:00:17;;;;;;;2.38;2.25;;;19.60;53.90;;;;;;5032776;28;20214;-70
2022/04/25 02:02:42;;;;;;;2.30;2.10;;;19.60;53.90;;;;;;5034053;28;20175;-70
2022/04/25 02:05:09;;;;;;;2.50;2.20;;;19.60;54.20;;;;;;5016369;28;20180;-71
2022/04/25 02:07:34;;;;;;;1.90;1.80;;;19.60;53.80;;;;;;5033940;28;20698;-70
2022/04/25 02:10:00;;;;;;;1.80;1.70;;;19.60;53.90;;;;;;5033947;28;20182;-70
2022/04/25 02:12:26;;;;;;;1.50;1.40;;;19.60;53.90;;;;;;5016097;28;20189;-72
2022/04/25 02:14:52;;;;;;;1.70;1.60;;;19.60;53.90;;;;;;5015975;28;20191;-70
2022/04/25 02:17:18;;;;;;;1.70;1.60;;;19.60;53.90;;;;;;5032760;28;20198;-70
2022/04/25 02:19:44;;;;;;;1.90;1.67;;;19.60;53.90;;;;;;5030354;28;20257;-70
2022/04/25 02:22:12;;;;;;;1.80;1.70;;;19.60;53.90;;;;;;5042480;28;20273;-70
2022/04/25 02:24:39;;;;;;;1.83;1.73;;;19.60;53.90;;;;;;5053551;28;20178;-70
2022/04/25 02:27:07;;;;;;;1.92;1.83;;;19.60;53.90;;;;;;5014139;28;20179;-69
2022/04/25 02:29:39;;;;;;;1.65;1.55;;;19.60;53.90;;;;;;5039969;28;20197;-70
2022/04/25 02:32:06;;;;;;;1.90;1.80;;;19.60;53.80;;;;;;5018999;28;20619;-68
2022/04/25 02:34:32;;;;;;;2.22;2.03;;;19.60;53.90;;;;;;5035623;28;20265;-70
2022/04/25 02:36:58;;;;;;;2.47;2.28;;;19.60;53.80;;;;;;5035536;28;20265;-70
2022/04/25 02:39:25;;;;;;;2.30;2.10;;;19.60;53.80;;;;;;5035255;28;20270;-70
2022/04/25 02:41:51;;;;;;;3.05;2.20;;;19.60;53.80;;;;;;5034946;28;20214;-70
2022/04/25 02:44:18;;;;;;;2.75;2.55;;;19.60;53.80;;;;;;5035184;28;20187;-70
2022/04/25 02:46:44;;;;;;;2.80;2.60;;;19.60;53.80;;;;;;5035524;28;20199;-70
2022/04/25 02:49:09;;;;;;;2.50;2.30;;;19.60;53.90;;;;;;5035506;28;20238;-70
2022/04/25 02:51:35;;;;;;;2.22;2.03;;;19.60;53.90;;;;;;5018835;28;20174;-70
2022/04/25 02:54:01;;;;;;;2.50;2.30;;;19.60;53.80;;;;;;5034905;28;20578;-70
2022/04/25 02:56:27;;;;;;;1.77;1.42;;;19.60;53.80;;;;;;5018997;28;20201;-70
2022/04/25 02:58:53;;;;;;;2.15;1.95;;;19.60;53.80;;;;;;5051716;28;20265;-70
2022/04/25 03:01:19;;;;;;;1.92;1.83;;;19.60;53.90;;;;;;5035318;28;20190;-70
2022/04/25 03:03:44;;;;;;;1.77;1.67;;;19.60;53.80;;;;;;5018406;28;20245;-70
2022/04/25 03:06:10;;;;;;;1.73;1.63;;;19.60;53.80;;;;;;5034923;28;20206;-70
2022/04/25 03:08:39;;;;;;;2.13;1.98;;;19.60;53.80;;;;;;5018438;28;20720;-70
2022/04/25 03:11:08;;;;;;;2.28;2.08;;;19.60;53.80;;;;;;5052678;28;20603;-70
2022/04/25 03:13:35;;;;;;;2.00;1.90;;;19.60;53.90;;;;;;5018268;28;20182;-70
2022/04/25 03:16:05;;;;;;;2.35;2.15;;;19.60;53.80;;;;;;5018303;28;20187;-70
2022/04/25 03:18:32;;;;;;;1.92;1.83;;;19.60;53.80;;;;;;5034825;28;20252;-70
2022/04/25 03:20:59;;;;;;;1.95;1.83;;;19.60;54.40;;;;;;5035308;28;20198;-70
2022/04/25 03:23:25;;;;;;;1.85;1.75;;;19.60;53.80;;;;;;5052480;28;20206;-70
2022/04/25 03:25:51;;;;;;;2.13;2.03;;;19.70;53.90;;;;;;5034498;28;20201;-70
2022/04/25 03:28:18;;;;;;;2.55;2.35;;;19.60;53.80;;;;;;5018454;28;20556;-70
2022/04/25 03:30:44;;;;;;;2.78;2.58;;;19.60;53.80;;;;;;5051189;28;20275;-70
2022/04/25 03:33:11;;;;;;;3.05;2.85;;;19.60;53.80;;;;;;5034223;28;20210;-70
2022/04/25 03:35:39;;;;;;;2.97;2.78;;;19.60;53.90;;;;;;5034616;28;20323;-70
2022/04/25 03:38:07;;;;;;;3.25;3.05;;;19.60;53.80;;;;;;5052132;28;20217;-70
2022/04/25 03:40:35;;;;;;;3.08;2.88;;;19.60;53.90;;;;;;5034575;28;20193;-70
2022/04/25 03:43:03;;;;;;;3.20;2.90;;;19.60;53.80;;;;;;5017788;28;20263;-70
2022/04/25 03:45:29;;;;;;;3.70;3.40;;;19.60;53.90;;;;;;5017972;28;20179;-70
2022/04/25 03:47:55;;;;;;;2.63;2.42;;;19.60;53.80;;;;;;5034563;28;20206;-70
2022/04/25 03:50:21;;;;;;;3.00;2.72;;;19.60;53.80;;;;;;5034326;28;20236;-70
2022/04/25 03:52:47;;;;;;;2.28;2.10;;;19.60;53.80;;;;;;5017281;28;20186;-70
2022/04/25 03:58:04;;;;;;;2.50;2.00;;;19.60;53.80;;;;;;5051922;28;20221;-69
2022/04/25 04:00:31;;;;;;;2.13;2.03;;;19.60;53.80;;;;;;5017914;28;20360;-70
2022/04/25 04:02:58;;;;;;;2.30;2.10;;;19.60;53.80;;;;;;5034230;28;20186;-70
2022/04/25 04:05:25;;;;;;;2.20;2.10;;;19.60;53.80;;;;;;5034540;28;20304;-70
2022/04/25 04:07:52;;;;;;;2.50;2.30;;;19.60;53.80;;;;;;5017954;28;20696;-70
2022/04/25 04:10:21;;;;;;;2.75;2.55;;;19.60;53.80;;;;;;5017700;28;20190;-71
2022/04/25 04:12:47;;;;;;;2.85;2.65;;;19.60;53.80;;;;;;5017457;28;20264;-70
2022/04/25 04:15:15;;;;;;;3.30;3.10;;;19.60;53.80;;;;;;5034360;28;20183;-71
2022/04/25 04:17:42;;;;;;;3.28;3.08;;;19.60;53.80;;;;;;5050676;28;20202;-71
2022/04/25 04:20:11;;;;;;;3.42;3.13;;;19.60;53.70;;;;;;5017771;28;20207;-70
2022/04/25 04:22:37;;;;;;;4.07;3.78;;;19.60;53.70;;;;;;5017312;28;20186;-70
2022/04/25 04:25:10;;;;;;;4.25;3.95;;;19.60;53.70;;;;;;5051721;28;20210;-71
2022/04/25 04:27:36;;;;;;;3.55;3.28;;;19.50;53.70;;;;;;5017512;28;20236;-71
2022/04/25 04:30:09;;;;;;;3.20;2.97;;;19.60;53.80;;;;;;5017449;28;20183;-70
2022/04/25 04:32:38;;;;;;;2.90;2.60;;;19.60;53.70;;;;;;5033817;28;20202;-70
2022/04/25 04:35:08;;;;;;;2.80;2.60;;;19.50;53.60;;;;;;5033847;28;20191;-71
2022/04/25 04:37:36;;;;;;;2.65;2.45;;;19.50;53.70;;;;;;5017627;28;20214;-70
2022/04/25 04:42:47;;;;;;;2.88;2.67;;;19.60;53.80;;;;;;5051880;28;20250;-71
2022/04/25 04:45:13;;;;;;;3.10;2.90;;;19.50;53.60;;;;;;5017699;28;20206;-71
2022/04/25 04:47:40;;;;;;;3.33;3.13;;;19.60;53.70;;;;;;5051867;28;20543;-71
2022/04/25 04:50:14;;;;;;;4.10;3.80;;;19.50;53.60;;;;;;5033751;28;20214;-72
2022/04/25 04:52:45;;;;;;;4.18;3.88;;;19.50;53.60;;;;;;5033747;28;20182;-71
2022/04/25 04:55:11;;;;;;;4.45;4.05;;;19.50;53.60;;;;;;5033770;28;20183;-71
2022/04/25 04:57:38;;;;;;;4.63;4.25;;;19.50;53.60;;;;;;5051452;28;20207;-69
2022/04/25 05:00:07;;;;;;;4.45;4.00;;;19.50;53.50;;;;;;5029984;22;20254;-69
2022/04/25 05:02:33;;;;;;;4.22;3.92;;;19.50;53.60;;;;;;5030175;28;20637;-69
2022/04/25 05:04:59;;;;;;;3.70;3.40;;;19.50;53.60;;;;;;5015393;28;20229;-69
2022/04/25 05:07:25;;;;;;;3.83;3.53;;;19.50;53.60;;;;;;5017522;28;20184;-69
2022/04/25 05:09:52;;;;;;;3.55;3.20;;;19.50;53.60;;;;;;5032863;28;20214;-70
2022/04/25 05:12:19;;;;;;;3.00;2.80;;;19.50;53.60;;;;;;5014166;28;20184;-70
2022/04/25 05:14:46;;;;;;;3.08;2.88;;;19.50;53.60;;;;;;5013238;28;20188;-70
2022/04/25 05:17:12;;;;;;;3.47;3.17;;;19.50;53.60;;;;;;5014024;28;20184;-70
2022/04/25 05:19:38;;;;;;;2.92;2.72;;;19.50;53.60;;;;;;5013049;28;20306;-70
2022/04/25 05:22:04;;;;;;;3.25;2.95;;;19.50;53.60;;;;;;5029337;28;20334;-70
2022/04/25 05:24:30;;;;;;;2.97;2.78;;;19.60;53.60;;;;;;5028819;28;20179;-70
2022/04/25 05:26:56;;;;;;;4.38;3.10;;;19.60;53.70;;;;;;5012432;28;20250;-70
2022/04/25 05:29:22;;;;;;;3.28;2.78;;;19.60;53.60;;;;;;5029301;28;20212;-70
2022/04/25 05:31:49;;;;;;;3.20;2.90;;;19.60;53.60;;;;;;5013108;28;20192;-70
2022/04/25 05:34:15;;;;;;;3.15;2.95;;;19.60;53.60;;;;;;5012778;28;20180;-70
2022/04/25 05:36:42;;;;;;;3.88;3.58;;;19.50;53.50;;;;;;5009522;28;20193;-70
2022/04/25 05:39:09;;;;;;;4.00;3.67;;;19.60;53.60;;;;;;5009705;28;20215;-70
2022/04/25 05:41:45;;;;;;;4.07;3.78;;;19.60;53.60;;;;;;4993548;28;20201;-70
2022/04/25 05:44:12;;;;;;;3.75;3.45;;;19.60;53.60;;;;;;4993170;28;20217;-70
2022/04/25 05:46:38;;;;;;;4.60;4.20;;;19.60;53.60;;;;;;4993346;28;20674;-70
2022/04/25 05:51:58;;;;;;;3.63;3.33;;;19.60;53.60;;;;;;4994503;28;20192;-70
2022/04/25 05:54:25;;;;;;;3.03;2.83;;;19.60;53.60;;;;;;5009185;28;20404;-70
2022/04/25 05:56:52;;;;;;;3.28;3.08;;;19.60;53.60;;;;;;4977090;28;20189;-70
2022/04/25 05:59:18;;;;;;;4.38;3.45;;;19.60;53.60;;;;;;5008998;28;20216;-70
2022/04/25 06:01:44;;;;;;;3.50;2.85;;;19.60;53.60;;;;;;5009367;28;20196;-70
2022/04/25 06:04:10;;;;;;;3.40;3.10;;;19.60;53.60;;;;;;4993947;28;20187;-70
2022/04/25 06:06:37;;;;;;;3.13;2.92;;;19.60;53.60;;;;;;4993019;28;20216;-70
2022/04/25 06:09:03;;;;;;;3.20;2.90;;;19.60;53.60;;;;;;4992653;28;20247;-70
2022/04/25 06:11:29;;;;;;;3.10;2.90;;;19.60;53.60;;;;;;5009595;28;20196;-70
2022/04/25 06:13:57;;;;;;;3.47;3.22;;;19.60;53.60;;;;;;5008961;28;20185;-70
2022/04/25 06:16:23;;;;;;;3.97;3.67;;;19.60;53.60;;;;;;4991980;28;20193;-70
2022/04/25 06:18:49;;;;;;;3.70;3.40;;;19.60;53.60;;;;;;5009171;28;20221;-70
2022/04/25 06:21:15;;;;;;;6.50;3.78;;;19.60;53.70;;;;;;5008941;28;20197;-70
2022/04/25 06:23:41;;;;;;;4.05;3.75;;;19.60;53.60;;;;;;5008718;28;20226;-70
2022/04/25 06:26:06;;;;;;;4.60;4.07;;;19.60;53.60;;;;;;4993722;28;20177;-70
2022/04/25 06:28:32;;;;;;;4.10;3.72;;;19.60;53.60;;;;;;4995940;28;20212;-70
2022/04/25 06:30:58;;;;;;;4.75;4.35;;;19.60;53.60;;;;;;5013740;28;20188;-70
2022/04/25 06:33:25;;;;;;;4.47;4.07;;;19.60;53.60;;;;;;5028368;28;20223;-70
2022/04/25 06:35:51;;;;;;;5.13;4.72;;;19.60;53.60;;;;;;5011928;28;20224;-70
2022/04/25 06:38:18;;;;;;;4.35;4.05;;;19.60;53.50;;;;;;4995416;28;20192;-70
2022/04/25 06:40:46;;;;;;;5.03;4.63;;;19.60;53.50;;;;;;5028483;28;20199;-70
2022/04/25 06:43:14;;;;;;;3.63;3.33;;;19.60;53.50;;;;;;5012693;28;20185;-70
2022/04/25 06:45:41;;;;;;;3.42;3.13;;;19.60;53.50;;;;;;5011997;28;20168;-70
2022/04/25 06:48:07;;;;;;;3.70;3.40;;;19.70;53.60;;;;;;4995387;28;20187;-70
2022/04/25 06:50:34;;;;;;;3.40;3.13;;;19.70;53.60;;;;;;5011863;28;20562;-70
2022/04/25 06:52:59;;;;;;;3.05;2.72;;;19.70;53.60;;;;;;5011086;28;20667;-70
2022/04/25 06:55:25;;;;;;;3.38;3.08;;;19.70;53.60;;;;;;5011679;28;20271;-70
2022/04/25 06:57:53;;;;;;;3.00;2.80;;;19.70;53.60;;;;;;5011514;28;20184;-70
2022/04/25 07:00:21;;;;;;;3.25;3.05;;;19.70;53.60;;;;;;5011185;28;20212;-70
2022/04/25 07:02:47;;;;;;;3.03;2.83;;;19.70;53.60;;;;;;5011282;28;20678;-70
2022/04/25 07:05:12;;;;;;;3.67;2.90;;;19.70;53.50;;;;;;5012759;28;20188;-69
2022/04/25 07:07:38;;;;;;;3.17;2.90;;;19.70;53.40;;;;;;5011294;28;20184;-70
2022/04/25 07:10:06;;;;;;;3.42;3.17;;;19.70;53.40;;;;;;5011360;28;20365;-70
2022/04/25 07:12:32;;;;;;;3.58;3.28;;;19.70;53.50;;;;;;5011126;28;20188;-70
2022/04/25 07:14:59;;;;;;;3.75;3.45;;;19.70;53.40;;;;;;5011514;28;20190;-70
2022/04/25 07:17:25;;;;;;;4.72;4.32;;;19.70;53.50;;;;;;5011070;28;20200;-70
2022/04/25 07:19:51;;;;;;;4.53;4.13;;;19.70;53.40;;;;;;5011327;28;20224;-70
2022/04/25 07:30:34;;;;;;;3.65;3.35;;;19.70;53.50;;;;;;5006728;28;20197;-70
2022/04/25 07:33:00;;;;;;;3.08;2.88;;;19.70;53.40;;;;;;4975067;28;20181;-70
2022/04/25 07:35:27;;;;;;;3.70;3.40;;;19.70;53.40;;;;;;4991436;28;20181;-70
2022/04/25 07:37:55;;;;;;;3.50;3.20;;;19.70;53.40;;;;;;4991271;28;20195;-70
2022/04/25 07:40:24;;;;;;;3.13;2.92;;;19.80;53.50;;;;;;4992457;28;20695;-70
2022/04/25 07:42:50;;;;;;;3.72;3.45;;;19.70;53.40;;;;;;4991220;28;20199;-70
2022/04/25 07:45:16;;;;;;;3.85;3.53;;;19.70;53.40;;;;;;4991143;28;20193;-70
2022/04/25 07:47:45;;;;;;;3.83;3.53;;;19.70;53.40;;;;;;4991414;28;20181;-70
2022/04/25 07:50:16;;;;;;;4.22;3.92;;;19.70;53.40;;;;;;4991034;28;20209;-70
2022/04/25 07:52:42;;;;;;;4.47;4.07;;;19.70;53.50;;;;;;4991419;28;20184;-70
2022/04/25 07:55:08;;;;;;;4.53;4.22;;;19.70;53.50;;;;;;4991287;28;20184;-70
2022/04/25 07:57:35;;;;;;;5.10;4.60;;;19.70;53.50;;;;;;4991268;28;20193;-70
2022/04/25 08:00:04;;;;;;;5.10;4.70;;;19.70;53.40;;;;;;4974562;28;20219;-70
2022/04/25 08:02:32;;;;;;;3.90;3.60;;;19.70;53.50;;;;;;4992720;28;20296;-70
2022/04/25 08:04:58;;;;;;;4.93;4.53;;;19.70;53.40;;;;;;4990901;28;20185;-70
2022/04/25 08:07:24;;;;;;;4.00;3.70;;;19.70;53.50;;;;;;4975108;28;20228;-70
2022/04/25 08:09:50;;;;;;;3.40;3.13;;;19.70;53.40;;;;;;4990924;28;20224;-70
2022/04/25 08:17:59;;;;;;;3.58;3.28;;;19.70;53.40;;;;;;4992288;28;20323;-70
2022/04/25 08:20:28;;;;;;;4.03;3.72;;;19.70;53.40;;;;;;4990893;28;20223;-70
2022/04/25 08:22:55;;;;;;;3.70;3.40;;;19.80;53.50;;;;;;4990795;28;20192;-70
2022/04/25 08:25:22;;;;;;;4.03;3.72;;;19.70;53.40;;;;;;4991934;28;20189;-70
2022/04/25 08:27:47;;;;;;;4.60;4.15;;;19.80;53.50;;;;;;4990859;28;20189;-70
2022/04/25 08:30:14;;;;;;;4.40;4.07;;;19.80;53.40;;;;;;4990815;28;20223;-70
2022/04/25 08:32:40;;;;;;;3.70;3.50;;;19.80;53.40;;;;;;5009672;28;20194;-69
2022/04/25 08:35:07;;;;;;;4.78;4.28;;;19.80;53.30;;;;;;5010427;28;20184;-70
2022/04/25 08:37:32;;;;;;;4.20;3.90;;;19.80;53.30;;;;;;5011610;28;20187;-70
2022/04/25 08:39:58;;;;;;;4.00;3.72;;;19.80;53.20;;;;;;5011229;28;20204;-70
2022/04/25 08:42:24;;;;;;;3.90;3.60;;;19.80;53.30;;;;;;5014079;28;20214;-70
2022/04/25 08:44:53;;;;;;;4.18;3.85;;;19.80;53.30;;;;;;5014075;28;20194;-70
2022/04/25 08:47:22;;;;;;;3.83;3.53;;;19.80;53.30;;;;;;5014153;28;20184;-70
2022/04/25 08:49:48;;;;;;;4.07;3.78;;;19.80;53.30;;;;;;4994194;28;20212;-71
2022/04/25 08:52:14;;;;;;;3.78;3.47;;;19.80;53.30;;;;;;4995515;28;20199;-70
2022/04/25 08:54:42;;;;;;;4.13;3.83;;;19.90;53.30;;;;;;5010593;28;20288;-70
2022/04/25 08:57:09;;;;;;;4.00;3.67;;;19.90;53.20;;;;;;4994238;28;20196;-70
2022/04/25 08:59:37;;;;;;;3.80;3.50;;;19.90;53.20;;;;;;4994111;28;20228;-70
2022/04/25 09:02:03;;;;;;;3.33;3.08;;;19.90;53.10;;;;;;5010602;28;20193;-70
2022/04/25 09:04:29;;;;;;;3.65;3.38;;;19.90;53.10;;;;;;4995066;28;20558;-70
2022/04/25 09:06:55;;;;;;;3.63;3.33;;;19.90;53.10;;;;;;4994058;28;20188;-70
2022/04/25 09:09:21;;;;;;;3.72;3.53;;;19.90;53.10;;;;;;5010524;28;20205;-70
2022/04/25 09:14:32;;;;;;;3.50;3.28;;;19.90;53.10;;;;;;4995287;28;20219;-70
2022/04/25 09:17:00;;;;;;;3.65;3.38;;;19.90;53.20;;;;;;5010267;28;20200;-70
2022/04/25 09:19:26;;;;;;;3.85;3.55;;;19.90;53.20;;;;;;5009910;28;20204;-70
2022/04/25 09:21:52;;;;;;;3.95;3.65;;;19.80;53.20;;;;;;5010449;28;20193;-70
2022/04/25 09:24:23;;;;;;;4.50;4.10;;;19.80;53.20;;;;;;4993723;28;20191;-70
2022/04/25 09:27:18;;;;;;;3.92;3.63;;;19.90;53.20;;;;;;4977464;28;20193;-70
2022/04/25 09:29:48;;;;;;;4.30;4.00;;;19.80;53.20;;;;;;4993652;28;20200;-70
2022/04/25 09:32:18;;;;;;;3.72;3.45;;;19.90;53.20;;;;;;4994746;28;20188;-70
2022/04/25 09:37:48;;;;;;;3.78;3.47;;;19.90;53.20;;;;;;4994729;28;20219;-70
2022/04/25 09:40:21;;;;;;;4.35;4.05;;;19.90;53.10;;;;;;4992290;28;20224;-70
2022/04/25 09:43:03;;;;;;;4.38;4.07;;;19.90;53.20;;;;;;5012720;28;20700;-70
2022/04/25 09:45:30;;;;;;;3.95;3.65;;;19.90;53.10;;;;;;5013085;28;20192;-70
2022/04/25 09:47:56;;;;;;;3.85;3.55;;;19.90;53.10;;;;;;5012917;28;20192;-70
2022/04/25 09:50:22;;;;;;;3.85;3.55;;;20.00;53.20;;;;;;5012615;28;20208;-70
2022/04/25 09:52:58;;;;;;;3.88;3.58;;;20.00;53.10;;;;;;5011571;28;20191;-70
2022/04/25 09:55:27;;;;;;;4.05;3.75;;;19.90;53.10;;;;;;5012927;28;20191;-70
2022/04/25 09:57:54;;;;;;;3.85;3.55;;;20.00;53.20;;;;;;5012936;28;20264;-70
2022/04/25 10:00:38;;;;;;;3.55;3.33;;;20.00;53.20;;;;;;5012499;28;20224;-70
2022/04/25 10:03:08;;;;;;;3.42;3.22;;;20.00;53.20;;;;;;5012570;28;20640;-70
2022/04/25 10:05:42;;;;;;;3.85;3.58;;;20.00;53.20;;;;;;5029184;28;20667;-70
2022/04/25 10:08:11;;;;;;;3.75;3.45;;;20.00;53.10;;;;;;4996098;28;20196;-70
2022/04/25 10:10:45;;;;;;;3.90;3.60;;;20.00;53.20;;;;;;5012617;28;20184;-70
2022/04/25 10:13:11;;;;;;;3.60;3.40;;;20.00;53.20;;;;;;5012265;28;20723;-70
2022/04/25 10:15:39;;;;;;;3.65;3.45;;;20.00;53.20;;;;;;5012296;28;20192;-70
2022/04/25 10:18:06;;;;;;;3.50;3.30;;;20.00;53.20;;;;;;5012268;28;20246;-70
2022/04/25 10:20:38;;;;;;;3.67;3.40;;;20.00;53.20;;;;;;5012346;28;20208;-70
2022/04/25 10:23:13;;;;;;;3.30;3.10;;;20.00;53.10;;;;;;5012000;28;20191;-70
2022/04/25 10:25:46;;;;;;;3.15;2.95;;;20.00;53.20;;;;;;5012170;28;20250;-70
2022/04/25 10:28:34;;;;;;;3.78;3.47;;;20.00;53.20;;;;;;5008482;28;20279;-70
2022/04/25 10:31:10;;;;;;;3.40;3.20;;;20.00;53.20;;;;;;5008646;28;20197;-70
2022/04/25 10:33:52;;;;;;;3.28;3.08;;;20.00;53.20;;;;;;4992223;28;20184;-70
2022/04/25 10:36:36;;;;;;;3.17;2.97;;;20.00;53.20;;;;;;5008898;28;20180;-70
2022/04/25 10:39:15;;;;;;;3.67;3.47;;;20.00;53.10;;;;;;4993341;28;20224;-70
2022/04/25 10:44:27;;;;;;;3.60;3.40;;;20.00;53.10;;;;;;5023534;28;20277;-70
2022/04/25 10:47:05;;;;;;;3.95;3.65;;;20.00;53.10;;;;;;5021974;28;20211;-69
2022/04/25 10:49:53;;;;;;;3.50;3.20;;;20.00;53.10;;;;;;5033364;28;20206;-70
2022/04/25 10:52:42;;;;;;;3.50;3.30;;;20.00;53.00;;;;;;5033857;28;20620;-69
2022/04/25 10:55:26;;;;;;;3.70;3.40;;;20.00;53.10;;;;;;4994488;28;20568;-70
2022/04/25 10:58:04;;;;;;;3.25;3.05;;;20.00;53.10;;;;;;5011848;28;20185;-70
2022/04/25 11:00:36;;;;;;;3.55;3.15;;;20.00;53.10;;;;;;5083485;22;20233;-71
2022/04/25 11:03:11;;;;;;;3.40;3.20;;;20.00;53.20;;;;;;5054353;28;20182;-71
2022/04/25 11:05:42;;;;;;;3.55;3.28;;;20.00;53.20;;;;;;5038752;28;20173;-70
2022/04/25 11:08:20;;;;;;;3.30;3.10;;;19.90;53.10;;;;;;5055233;28;20181;-71
2022/04/25 11:10:46;;;;;;;3.60;3.30;;;20.00;53.20;;;;;;5038211;28;20685;-71
2022/04/25 11:13:13;;;;;;;3.42;3.22;;;20.00;53.20;;;;;;5045418;28;20201;-70
2022/04/25 11:15:48;;;;;;;3.30;3.10;;;20.00;53.20;;;;;;5034999;28;20232;-71
2022/04/25 11:18:41;;;;;;;3.05;2.85;;;20.00;53.10;;;;;;5035148;28;20166;-71
2022/04/25 11:21:16;;;;;;;3.33;3.13;;;20.00;53.10;;;;;;5046648;28;20233;-71
2022/04/25 11:23:50;;;;;;;3.38;3.08;;;20.00;53.10;;;;;;5054536;28;20185;-70
2022/04/25 11:26:22;;;;;;;3.40;3.20;;;20.00;53.20;;;;;;5071469;28;20192;-70
2022/04/25 11:29:03;;;;;;;3.40;3.20;;;19.90;53.10;;;;;;5054962;28;20212;-70
2022/04/25 11:31:31;;;;;;;3.70;3.22;;;20.00;53.20;;;;;;5054804;28;20177;-71
2022/04/25 11:34:07;;;;;;;3.72;3.40;;;20.00;53.30;;;;;;5070979;28;20185;-71
2022/04/25 11:36:44;;;;;;;3.13;2.92;;;19.90;53.20;;;;;;5038008;28;20189;-70
2022/04/25 11:42:01;;;;;;;3.63;3.33;;;19.90;53.20;;;;;;5072702;28;20170;-70
2022/04/25 11:44:27;;;;;;;3.67;3.38;;;19.90;53.30;;;;;;5054480;28;20196;-70
2022/04/25 11:46:53;;;;;;;3.35;3.05;;;19.90;53.30;;;;;;5042105;28;20183;-70
2022/04/25 11:49:32;;;;;;;3.55;3.30;;;19.90;53.30;;;;;;5049341;28;20233;-70
2022/04/25 11:52:00;;;;;;;3.65;3.22;;;19.90;53.40;;;;;;5017925;28;20656;-70
2022/04/25 11:54:34;;;;;;;5.68;3.60;;;19.90;53.70;;;;;;5034083;28;20642;-70
2022/04/25 11:57:02;;;;;;;3.67;3.20;;;19.90;53.70;;;;;;5017912;28;20261;-70
2022/04/25 11:59:29;;;;;;;3.50;3.20;;;19.90;53.60;;;;;;5051006;28;20653;-70
2022/04/25 12:01:55;;;;;;;3.45;3.05;;;19.90;53.60;;;;;;5034288;28;20281;-70
2022/04/25 12:04:24;;;;;;;3.40;3.20;;;19.90;53.70;;;;;;5017472;28;20261;-70
2022/04/25 12:06:57;;;;;;;3.22;3.03;;;19.90;53.60;;;;;;5034209;28;20178;-70
2022/04/25 12:17:52;;;;;;;4.63;3.40;;;19.90;53.90;;;;;;5056243;28;20171;-71
2022/04/25 12:20:30;;;;;;;3.60;3.30;;;19.90;54.00;;;;;;5038237;28;20210;-71
2022/04/25 12:22:59;;;;;;;3.33;2.90;;;19.90;53.90;;;;;;5021861;28;20182;-71
2022/04/25 12:25:30;;;;;;;3.15;2.70;;;19.90;53.90;;;;;;5037737;28;20198;-71
2022/04/25 12:28:18;;;;;;;3.40;3.10;;;19.90;53.90;;;;;;5054771;28;20269;-71
2022/04/25 12:30:54;;;;;;;2.55;2.35;;;19.90;53.80;;;;;;5046855;28;20213;-71
2022/04/25 12:33:31;;;;;;;3.20;2.95;;;19.90;53.80;;;;;;5057926;28;20315;-71
2022/04/25 12:36:19;;;;;;;3.20;2.80;;;19.90;53.80;;;;;;5057954;28;20172;-70
2022/04/25 12:38:55;;;;;;;3.25;3.05;;;19.90;53.80;;;;;;5075640;28;20174;-71
2022/04/25 12:41:36;;;;;;;3.05;2.85;;;19.90;53.80;;;;;;5074492;28;20178;-71
2022/04/25 12:44:11;;;;;;;2.95;2.72;;;19.90;53.80;;;;;;5057468;28;20189;-70
2022/04/25 12:46:55;;;;;;;2.78;2.58;;;19.90;53.80;;;;;;5057583;28;20185;-71
2022/04/25 12:49:44;;;;;;;2.42;2.30;;;19.90;53.70;;;;;;5037612;28;20297;-71
2022/04/25 12:52:13;;;;;;;2.53;2.33;;;19.90;53.70;;;;;;5037641;28;20663;-71
2022/04/25 12:54:42;;;;;;;2.65;2.45;;;19.90;53.70;;;;;;5037376;28;20190;-71
2022/04/25 12:57:18;;;;;;;3.20;2.92;;;19.90;53.70;;;;;;5054204;28;20186;-71
2022/04/25 12:59:59;;;;;;;2.78;2.55;;;19.90;53.70;;;;;;5037192;28;20218;-71
2022/04/25 13:02:37;;;;;;;3.05;2.40;;;19.90;53.80;;;;;;5020782;28;20214;-71
2022/04/25 13:05:08;;;;;;;2.83;2.63;;;19.90;53.70;;;;;;5054837;28;20210;-71
2022/04/25 13:07:41;;;;;;;2.60;2.40;;;19.90;53.70;;;;;;5053623;28;20241;-71
2022/04/25 13:10:12;;;;;;;2.92;2.58;;;19.90;53.80;;;;;;5054623;28;20213;-71
2022/04/25 13:12:41;;;;;;;2.85;2.55;;;19.90;53.80;;;;;;5055221;28;20183;-72
2022/04/25 13:15:19;;;;;;;2.70;2.50;;;19.90;53.80;;;;;;5037164;28;20684;-71
2022/04/25 13:17:45;;;;;;;3.47;2.60;;;20.00;53.90;;;;;;5037457;28;20174;-71
2022/04/25 13:20:14;;;;;;;2.40;2.30;;;20.00;53.80;;;;;;5054781;28;20218;-71
2022/04/25 13:22:44;;;;;;;2.42;2.33;;;20.00;53.80;;;;;;5037015;28;20190;-71
2022/04/25 13:25:14;;;;;;;2.80;2.60;;;20.00;53.80;;;;;;5036724;28;20185;-71
2022/04/25 13:27:41;;;;;;;3.03;2.30;;;20.00;53.80;;;;;;5037032;28;20270;-71
2022/04/25 13:30:12;;;;;;;2.95;2.60;;;20.00;53.80;;;;;;5020341;28;20209;-71
2022/04/25 13:32:40;;;;;;;2.35;2.15;;;20.00;53.80;;;;;;5053582;28;20208;-71
2022/04/25 13:35:17;;;;;;;2.50;2.40;;;20.00;53.80;;;;;;5036622;28;20191;-71
2022/04/25 13:37:44;;;;;;;2.55;2.40;;;20.00;53.80;;;;;;5053383;28;20191;-71
2022/04/25 13:40:10;;;;;;;2.70;2.50;;;20.00;53.80;;;;;;5020361;28;20245;-71
2022/04/25 13:42:37;;;;;;;2.53;2.35;;;20.00;53.80;;;;;;5053339;28;20189;-71
2022/04/25 13:45:04;;;;;;;2.90;2.22;;;20.00;53.80;;;;;;5036420;28;20198;-72